This is the latest recevied weather packets stored in our database for station/object K6MBY. If no packets are shown the sender has not sent any weather packets the latest 10 day(s).
| Time | Temp. | Humidity | Pressure | Rain* | Wind** | Luminosity | Snow |
|---|---|---|---|---|---|---|---|
| 1777874324 | 16.11° C | 58% | 1013.4 hPa | 0 mm | - | 0 W/m² | - |
| 1777874021 | 15.56° C | 60% | 1013.4 hPa | 0 mm | - | 0 W/m² | - |
| 1777873718 | 15.56° C | 60% | 1013.3 hPa | 0 mm | - | 0 W/m² | - |
| 1777873415 | 16.11° C | 60% | 1013.5 hPa | 0 mm | - | 0 W/m² | - |
| 1777873112 | 16.11° C | 56% | 1013.2 hPa | 0 mm | - | 0 W/m² | - |
| 1777872808 | 15.56° C | 61% | 1013.3 hPa | 0 mm | - | 0 W/m² | - |
| 1777872500 | 16.11° C | 60% | 1013.3 hPa | 0 mm | - | 0 W/m² | - |
| 1777872198 | 16.11° C | 60% | 1013.3 hPa | 0 mm | - | 0 W/m² | - |
| 1777871896 | 16.67° C | 56% | 1013.4 hPa | 0 mm | - | 0 W/m² | - |
| 1777871592 | 16.67° C | 58% | 1013.2 hPa | 0 mm | - | 0 W/m² | - |
| 1777871289 | 17.22° C | 56% | 1013.3 hPa | 0 mm | - | 0 W/m² | - |
| 1777870986 | 18.89° C | 47% | 1013.3 hPa | 0 mm | - | 0 W/m² | - |
| 1777870683 | 19.44° C | 44% | 1013.4 hPa | 0 mm | - | 0 W/m² | - |
| 1777870382 | 20° C | 41% | 1013.2 hPa | 0 mm | - | 0 W/m² | - |
| 1777870080 | 20.56° C | 41% | 1013.3 hPa | 0 mm | - | 0 W/m² | - |
| 1777869777 | 20.56° C | 41% | 1013.3 hPa | 0 mm | - | 0 W/m² | - |
| 1777869474 | 20.56° C | 41% | 1013.2 hPa | 0 mm | - | 0 W/m² | - |
| 1777869171 | 20° C | 42% | 1013.2 hPa | 0 mm | - | 0 W/m² | - |
| 1777868869 | 20° C | 42% | 1013.1 hPa | 0 mm | - | 0 W/m² | - |
| 1777868565 | 20.56° C | 38% | 1013.2 hPa | 0 mm | - | 0 W/m² | - |
| 1777868261 | 20.56° C | 39% | 1013.2 hPa | 0 mm | - | 0 W/m² | - |
| 1777867958 | 21.67° C | 37% | 1013.1 hPa | 0 mm | - | 0 W/m² | - |
| 1777867654 | 23.33° C | 30% | 1013.1 hPa | 0 mm | - | 0 W/m² | - |
| 1777867352 | 23.33° C | 30% | 1013 hPa | 0 mm | - | 0 W/m² | - |
| 1777867047 | 23.33° C | 29% | 1013.1 hPa | 0 mm | - | 0 W/m² | - |
* Rain latest hour (hover to see other rain measurements)
** Current wind speed in m/s (hover to see current wind gust speed)